sensor_id;sensor_type;location;lat;lon;timestamp;P1;durP1;ratioP1;P2;durP2;ratioP2
9400;SDS011;4740;49.592;6.140;2024-03-22T00:02:13;0.00;;;0.00;;
9400;SDS011;4740;49.592;6.140;2024-03-22T00:04:38;0.00;;;0.00;;
9400;SDS011;4740;49.592;6.140;2024-03-22T00:07:04;4.07;;;3.20;;
9400;SDS011;4740;49.592;6.140;2024-03-22T00:09:29;0.00;;;0.00;;
9400;SDS011;4740;49.592;6.140;2024-03-22T00:11:55;0.00;;;0.00;;
9400;SDS011;4740;49.592;6.140;2024-03-22T00:14:20;0.00;;;0.00;;
9400;SDS011;4740;49.592;6.140;2024-03-22T00:16:45;0.00;;;0.00;;
9400;SDS011;4740;49.592;6.140;2024-03-22T00:19:10;0.00;;;0.00;;
9400;SDS011;4740;49.592;6.140;2024-03-22T00:21:36;0.00;;;0.00;;
9400;SDS011;4740;49.592;6.140;2024-03-22T00:24:01;0.00;;;0.00;;
9400;SDS011;4740;49.592;6.140;2024-03-22T00:26:26;0.00;;;0.00;;
9400;SDS011;4740;49.592;6.140;2024-03-22T00:28:52;0.00;;;0.00;;
9400;SDS011;4740;49.592;6.140;2024-03-22T00:31:17;0.00;;;0.00;;
9400;SDS011;4740;49.592;6.140;2024-03-22T00:33:42;0.00;;;0.00;;
9400;SDS011;4740;49.592;6.140;2024-03-22T00:36:08;0.00;;;0.00;;
9400;SDS011;4740;49.592;6.140;2024-03-22T00:38:33;0.00;;;0.00;;
9400;SDS011;4740;49.592;6.140;2024-03-22T00:40:58;0.00;;;0.00;;
9400;SDS011;4740;49.592;6.140;2024-03-22T00:43:23;0.00;;;0.00;;
9400;SDS011;4740;49.592;6.140;2024-03-22T00:45:48;0.00;;;0.00;;
9400;SDS011;4740;49.592;6.140;2024-03-22T00:48:14;0.00;;;0.00;;
9400;SDS011;4740;49.592;6.140;2024-03-22T00:50:39;0.77;;;0.77;;
9400;SDS011;4740;49.592;6.140;2024-03-22T00:53:04;0.00;;;0.00;;
9400;SDS011;4740;49.592;6.140;2024-03-22T00:55:31;0.00;;;0.00;;
9400;SDS011;4740;49.592;6.140;2024-03-22T00:57:56;0.07;;;0.07;;
9400;SDS011;4740;49.592;6.140;2024-03-22T01:00:22;0.00;;;0.00;;
9400;SDS011;4740;49.592;6.140;2024-03-22T01:02:47;0.00;;;0.00;;
9400;SDS011;4740;49.592;6.140;2024-03-22T01:05:13;0.00;;;0.00;;
9400;SDS011;4740;49.592;6.140;2024-03-22T01:07:39;0.00;;;0.00;;
9400;SDS011;4740;49.592;6.140;2024-03-22T01:10:05;0.00;;;0.00;;
9400;SDS011;4740;49.592;6.140;2024-03-22T01:12:30;0.00;;;0.00;;
9400;SDS011;4740;49.592;6.140;2024-03-22T01:14:56;0.00;;;0.00;;
9400;SDS011;4740;49.592;6.140;2024-03-22T01:17:21;0.00;;;0.00;;
9400;SDS011;4740;49.592;6.140;2024-03-22T01:19:46;0.00;;;0.00;;
9400;SDS011;4740;49.592;6.140;2024-03-22T01:22:11;0.00;;;0.00;;
9400;SDS011;4740;49.592;6.140;2024-03-22T01:24:37;0.00;;;0.00;;
9400;SDS011;4740;49.592;6.140;2024-03-22T01:27:02;0.10;;;0.10;;
9400;SDS011;4740;49.592;6.140;2024-03-22T01:29:27;0.13;;;0.10;;
9400;SDS011;4740;49.592;6.140;2024-03-22T01:31:55;0.20;;;0.20;;
9400;SDS011;4740;49.592;6.140;2024-03-22T01:34:21;0.00;;;0.00;;
9400;SDS011;4740;49.592;6.140;2024-03-22T01:36:46;0.00;;;0.00;;
9400;SDS011;4740;49.592;6.140;2024-03-22T01:39:11;0.00;;;0.00;;
9400;SDS011;4740;49.592;6.140;2024-03-22T01:41:36;0.00;;;0.00;;
9400;SDS011;4740;49.592;6.140;2024-03-22T01:44:01;0.10;;;0.10;;
9400;SDS011;4740;49.592;6.140;2024-03-22T01:46:27;0.00;;;0.00;;
9400;SDS011;4740;49.592;6.140;2024-03-22T01:48:52;0.00;;;0.00;;
9400;SDS011;4740;49.592;6.140;2024-03-22T01:51:18;0.00;;;0.00;;
9400;SDS011;4740;49.592;6.140;2024-03-22T01:53:43;0.00;;;0.00;;
9400;SDS011;4740;49.592;6.140;2024-03-22T01:56:08;0.00;;;0.00;;
9400;SDS011;4740;49.592;6.140;2024-03-22T01:58:34;0.00;;;0.00;;
9400;SDS011;4740;49.592;6.140;2024-03-22T02:00:59;0.00;;;0.00;;
9400;SDS011;4740;49.592;6.140;2024-03-22T02:03:25;0.00;;;0.00;;
9400;SDS011;4740;49.592;6.140;2024-03-22T02:05:50;1.00;;;0.43;;
9400;SDS011;4740;49.592;6.140;2024-03-22T02:08:15;0.10;;;0.10;;
9400;SDS011;4740;49.592;6.140;2024-03-22T02:10:40;0.00;;;0.00;;
9400;SDS011;4740;49.592;6.140;2024-03-22T02:13:05;0.27;;;0.27;;
9400;SDS011;4740;49.592;6.140;2024-03-22T02:15:31;0.00;;;0.00;;
9400;SDS011;4740;49.592;6.140;2024-03-22T02:17:56;0.03;;;0.03;;
9400;SDS011;4740;49.592;6.140;2024-03-22T02:20:21;0.00;;;0.00;;
9400;SDS011;4740;49.592;6.140;2024-03-22T02:22:47;0.00;;;0.00;;
9400;SDS011;4740;49.592;6.140;2024-03-22T02:25:12;0.00;;;0.00;;
9400;SDS011;4740;49.592;6.140;2024-03-22T02:27:38;0.00;;;0.00;;
9400;SDS011;4740;49.592;6.140;2024-03-22T02:30:03;0.00;;;0.00;;
9400;SDS011;4740;49.592;6.140;2024-03-22T02:32:29;0.00;;;0.00;;
9400;SDS011;4740;49.592;6.140;2024-03-22T02:34:54;0.00;;;0.00;;
9400;SDS011;4740;49.592;6.140;2024-03-22T02:37:19;0.20;;;0.20;;
9400;SDS011;4740;49.592;6.140;2024-03-22T02:39:45;0.00;;;0.00;;
9400;SDS011;4740;49.592;6.140;2024-03-22T02:42:10;0.00;;;0.00;;
9400;SDS011;4740;49.592;6.140;2024-03-22T02:44:35;0.00;;;0.00;;
9400;SDS011;4740;49.592;6.140;2024-03-22T02:47:03;0.00;;;0.00;;
9400;SDS011;4740;49.592;6.140;2024-03-22T02:49:29;0.00;;;0.00;;
9400;SDS011;4740;49.592;6.140;2024-03-22T02:51:54;0.00;;;0.00;;
9400;SDS011;4740;49.592;6.140;2024-03-22T02:54:19;0.00;;;0.00;;
9400;SDS011;4740;49.592;6.140;2024-03-22T02:56:44;0.00;;;0.00;;
9400;SDS011;4740;49.592;6.140;2024-03-22T02:59:09;0.00;;;0.00;;
9400;SDS011;4740;49.592;6.140;2024-03-22T03:01:34;0.00;;;0.00;;
9400;SDS011;4740;49.592;6.140;2024-03-22T03:04:00;0.00;;;0.00;;
9400;SDS011;4740;49.592;6.140;2024-03-22T03:06:25;0.00;;;0.00;;
9400;SDS011;4740;49.592;6.140;2024-03-22T03:08:50;0.00;;;0.00;;
9400;SDS011;4740;49.592;6.140;2024-03-22T03:11:15;0.00;;;0.00;;
9400;SDS011;4740;49.592;6.140;2024-03-22T03:13:40;0.00;;;0.00;;
9400;SDS011;4740;49.592;6.140;2024-03-22T03:16:06;0.10;;;0.10;;
9400;SDS011;4740;49.592;6.140;2024-03-22T03:18:31;0.00;;;0.00;;
9400;SDS011;4740;49.592;6.140;2024-03-22T03:20:56;0.00;;;0.00;;
9400;SDS011;4740;49.592;6.140;2024-03-22T03:23:21;0.37;;;0.37;;
9400;SDS011;4740;49.592;6.140;2024-03-22T03:25:46;0.00;;;0.00;;
9400;SDS011;4740;49.592;6.140;2024-03-22T03:28:11;0.00;;;0.00;;
9400;SDS011;4740;49.592;6.140;2024-03-22T03:30:38;0.00;;;0.00;;
9400;SDS011;4740;49.592;6.140;2024-03-22T03:33:03;0.53;;;0.30;;
9400;SDS011;4740;49.592;6.140;2024-03-22T03:35:28;0.07;;;0.07;;
9400;SDS011;4740;49.592;6.140;2024-03-22T03:37:54;0.00;;;0.00;;
9400;SDS011;4740;49.592;6.140;2024-03-22T03:40:19;0.00;;;0.00;;
9400;SDS011;4740;49.592;6.140;2024-03-22T03:42:44;0.00;;;0.00;;
9400;SDS011;4740;49.592;6.140;2024-03-22T03:45:10;0.10;;;0.10;;
9400;SDS011;4740;49.592;6.140;2024-03-22T03:47:35;0.00;;;0.00;;
9400;SDS011;4740;49.592;6.140;2024-03-22T03:50:00;0.00;;;0.00;;
9400;SDS011;4740;49.592;6.140;2024-03-22T03:52:25;0.60;;;0.60;;
9400;SDS011;4740;49.592;6.140;2024-03-22T03:54:50;0.00;;;0.00;;
9400;SDS011;4740;49.592;6.140;2024-03-22T03:57:16;0.00;;;0.00;;
9400;SDS011;4740;49.592;6.140;2024-03-22T03:59:41;0.00;;;0.00;;
9400;SDS011;4740;49.592;6.140;2024-03-22T04:02:06;0.00;;;0.00;;
9400;SDS011;4740;49.592;6.140;2024-03-22T04:04:31;0.10;;;0.10;;
9400;SDS011;4740;49.592;6.140;2024-03-22T04:06:57;0.00;;;0.00;;
9400;SDS011;4740;49.592;6.140;2024-03-22T04:09:22;0.00;;;0.00;;
9400;SDS011;4740;49.592;6.140;2024-03-22T04:11:47;0.00;;;0.00;;
9400;SDS011;4740;49.592;6.140;2024-03-22T04:14:13;0.00;;;0.00;;
9400;SDS011;4740;49.592;6.140;2024-03-22T04:16:38;0.00;;;0.00;;
9400;SDS011;4740;49.592;6.140;2024-03-22T04:19:03;0.00;;;0.00;;
9400;SDS011;4740;49.592;6.140;2024-03-22T04:21:28;0.00;;;0.00;;
9400;SDS011;4740;49.592;6.140;2024-03-22T04:23:54;0.00;;;0.00;;
9400;SDS011;4740;49.592;6.140;2024-03-22T04:26:19;0.53;;;0.53;;
9400;SDS011;4740;49.592;6.140;2024-03-22T04:28:44;0.27;;;0.27;;
9400;SDS011;4740;49.592;6.140;2024-03-22T04:31:09;0.00;;;0.00;;
9400;SDS011;4740;49.592;6.140;2024-03-22T04:33:35;0.00;;;0.00;;
9400;SDS011;4740;49.592;6.140;2024-03-22T04:36:01;0.00;;;0.00;;
9400;SDS011;4740;49.592;6.140;2024-03-22T04:38:27;0.00;;;0.00;;
9400;SDS011;4740;49.592;6.140;2024-03-22T04:40:53;0.00;;;0.00;;
9400;SDS011;4740;49.592;6.140;2024-03-22T04:43:19;0.00;;;0.00;;
9400;SDS011;4740;49.592;6.140;2024-03-22T04:45:44;0.00;;;0.00;;
9400;SDS011;4740;49.592;6.140;2024-03-22T04:48:12;0.00;;;0.00;;
9400;SDS011;4740;49.592;6.140;2024-03-22T04:50:37;0.87;;;0.30;;
9400;SDS011;4740;49.592;6.140;2024-03-22T04:53:02;0.00;;;0.00;;
9400;SDS011;4740;49.592;6.140;2024-03-22T04:55:28;0.20;;;0.20;;
9400;SDS011;4740;49.592;6.140;2024-03-22T04:57:53;0.57;;;0.40;;
9400;SDS011;4740;49.592;6.140;2024-03-22T05:00:18;0.00;;;0.00;;
9400;SDS011;4740;49.592;6.140;2024-03-22T05:02:43;0.00;;;0.00;;
9400;SDS011;4740;49.592;6.140;2024-03-22T05:05:09;0.00;;;0.00;;
9400;SDS011;4740;49.592;6.140;2024-03-22T05:07:34;0.00;;;0.00;;
9400;SDS011;4740;49.592;6.140;2024-03-22T05:10:00;0.00;;;0.00;;
9400;SDS011;4740;49.592;6.140;2024-03-22T05:12:25;0.00;;;0.00;;
9400;SDS011;4740;49.592;6.140;2024-03-22T05:14:50;0.00;;;0.00;;
9400;SDS011;4740;49.592;6.140;2024-03-22T05:17:15;0.00;;;0.00;;
9400;SDS011;4740;49.592;6.140;2024-03-22T05:19:41;0.30;;;0.30;;
9400;SDS011;4740;49.592;6.140;2024-03-22T05:22:06;0.00;;;0.00;;
9400;SDS011;4740;49.592;6.140;2024-03-22T05:24:31;0.00;;;0.00;;
9400;SDS011;4740;49.592;6.140;2024-03-22T05:26:57;0.00;;;0.00;;
9400;SDS011;4740;49.592;6.140;2024-03-22T05:29:23;0.00;;;0.00;;
9400;SDS011;4740;49.592;6.140;2024-03-22T05:31:48;0.00;;;0.00;;
9400;SDS011;4740;49.592;6.140;2024-03-22T05:34:14;0.00;;;0.00;;
9400;SDS011;4740;49.592;6.140;2024-03-22T05:36:40;0.00;;;0.00;;
9400;SDS011;4740;49.592;6.140;2024-03-22T05:39:05;0.00;;;0.00;;
9400;SDS011;4740;49.592;6.140;2024-03-22T05:41:30;0.03;;;0.03;;
9400;SDS011;4740;49.592;6.140;2024-03-22T05:43:55;0.00;;;0.00;;
9400;SDS011;4740;49.592;6.140;2024-03-22T05:46:21;0.00;;;0.00;;
9400;SDS011;4740;49.592;6.140;2024-03-22T05:48:46;0.00;;;0.00;;
9400;SDS011;4740;49.592;6.140;2024-03-22T05:51:13;0.00;;;0.00;;
9400;SDS011;4740;49.592;6.140;2024-03-22T05:53:38;0.10;;;0.10;;
9400;SDS011;4740;49.592;6.140;2024-03-22T05:56:04;0.10;;;0.10;;
9400;SDS011;4740;49.592;6.140;2024-03-22T05:58:29;0.00;;;0.00;;
9400;SDS011;4740;49.592;6.140;2024-03-22T06:00:55;0.00;;;0.00;;
9400;SDS011;4740;49.592;6.140;2024-03-22T06:03:20;0.00;;;0.00;;
9400;SDS011;4740;49.592;6.140;2024-03-22T06:05:46;0.10;;;0.10;;
9400;SDS011;4740;49.592;6.140;2024-03-22T06:08:11;0.57;;;0.57;;
9400;SDS011;4740;49.592;6.140;2024-03-22T06:10:36;0.00;;;0.00;;
9400;SDS011;4740;49.592;6.140;2024-03-22T06:13:02;0.00;;;0.00;;
9400;SDS011;4740;49.592;6.140;2024-03-22T06:15:28;0.13;;;0.13;;
9400;SDS011;4740;49.592;6.140;2024-03-22T06:17:53;0.03;;;0.03;;
9400;SDS011;4740;49.592;6.140;2024-03-22T06:20:18;0.03;;;0.03;;
9400;SDS011;4740;49.592;6.140;2024-03-22T06:22:44;0.00;;;0.00;;
9400;SDS011;4740;49.592;6.140;2024-03-22T06:25:09;0.10;;;0.10;;
9400;SDS011;4740;49.592;6.140;2024-03-22T06:27:34;0.00;;;0.00;;
9400;SDS011;4740;49.592;6.140;2024-03-22T06:29:59;0.50;;;0.40;;
9400;SDS011;4740;49.592;6.140;2024-03-22T06:32:25;0.00;;;0.00;;
9400;SDS011;4740;49.592;6.140;2024-03-22T06:34:50;0.00;;;0.00;;
9400;SDS011;4740;49.592;6.140;2024-03-22T06:37:16;0.00;;;0.00;;
9400;SDS011;4740;49.592;6.140;2024-03-22T06:39:41;0.00;;;0.00;;
9400;SDS011;4740;49.592;6.140;2024-03-22T06:42:06;0.00;;;0.00;;
9400;SDS011;4740;49.592;6.140;2024-03-22T06:44:32;0.00;;;0.00;;
9400;SDS011;4740;49.592;6.140;2024-03-22T06:46:57;0.00;;;0.00;;
9400;SDS011;4740;49.592;6.140;2024-03-22T06:49:22;0.00;;;0.00;;
9400;SDS011;4740;49.592;6.140;2024-03-22T06:51:47;0.23;;;0.23;;
9400;SDS011;4740;49.592;6.140;2024-03-22T06:54:12;0.00;;;0.00;;
9400;SDS011;4740;49.592;6.140;2024-03-22T06:56:38;1.17;;;0.50;;
9400;SDS011;4740;49.592;6.140;2024-03-22T06:59:03;0.67;;;0.67;;
9400;SDS011;4740;49.592;6.140;2024-03-22T07:01:28;0.20;;;0.20;;
9400;SDS011;4740;49.592;6.140;2024-03-22T07:03:54;0.40;;;0.40;;
9400;SDS011;4740;49.592;6.140;2024-03-22T07:06:19;0.23;;;0.23;;
9400;SDS011;4740;49.592;6.140;2024-03-22T07:08:45;0.00;;;0.00;;
9400;SDS011;4740;49.592;6.140;2024-03-22T07:11:10;0.00;;;0.00;;
9400;SDS011;4740;49.592;6.140;2024-03-22T07:13:35;0.00;;;0.00;;
9400;SDS011;4740;49.592;6.140;2024-03-22T07:16:01;0.40;;;0.40;;
9400;SDS011;4740;49.592;6.140;2024-03-22T07:18:26;0.30;;;0.17;;
9400;SDS011;4740;49.592;6.140;2024-03-22T07:20:51;0.00;;;0.00;;
9400;SDS011;4740;49.592;6.140;2024-03-22T07:23:17;0.07;;;0.07;;
9400;SDS011;4740;49.592;6.140;2024-03-22T07:25:42;0.00;;;0.00;;
9400;SDS011;4740;49.592;6.140;2024-03-22T07:28:10;0.00;;;0.00;;
9400;SDS011;4740;49.592;6.140;2024-03-22T07:30:35;0.30;;;0.30;;
9400;SDS011;4740;49.592;6.140;2024-03-22T07:33:02;0.67;;;0.40;;
9400;SDS011;4740;49.592;6.140;2024-03-22T07:35:27;10.40;;;2.73;;
9400;SDS011;4740;49.592;6.140;2024-03-22T07:37:52;0.00;;;0.00;;
9400;SDS011;4740;49.592;6.140;2024-03-22T07:40:18;0.00;;;0.00;;
9400;SDS011;4740;49.592;6.140;2024-03-22T07:42:43;0.00;;;0.00;;
9400;SDS011;4740;49.592;6.140;2024-03-22T07:45:08;0.30;;;0.30;;
9400;SDS011;4740;49.592;6.140;2024-03-22T07:47:33;0.63;;;0.63;;
9400;SDS011;4740;49.592;6.140;2024-03-22T07:49:59;0.00;;;0.00;;
9400;SDS011;4740;49.592;6.140;2024-03-22T07:52:24;0.00;;;0.00;;
9400;SDS011;4740;49.592;6.140;2024-03-22T07:54:49;0.00;;;0.00;;
9400;SDS011;4740;49.592;6.140;2024-03-22T07:57:14;0.00;;;0.00;;
9400;SDS011;4740;49.592;6.140;2024-03-22T07:59:40;0.00;;;0.00;;
9400;SDS011;4740;49.592;6.140;2024-03-22T08:02:05;0.00;;;0.00;;
9400;SDS011;4740;49.592;6.140;2024-03-22T08:04:30;0.00;;;0.00;;
9400;SDS011;4740;49.592;6.140;2024-03-22T08:06:55;0.20;;;0.20;;
9400;SDS011;4740;49.592;6.140;2024-03-22T08:09:21;1.83;;;1.13;;
9400;SDS011;4740;49.592;6.140;2024-03-22T08:11:47;0.10;;;0.10;;
9400;SDS011;4740;49.592;6.140;2024-03-22T08:14:12;0.00;;;0.00;;
9400;SDS011;4740;49.592;6.140;2024-03-22T08:16:38;0.30;;;0.30;;
9400;SDS011;4740;49.592;6.140;2024-03-22T08:19:03;1.30;;;0.43;;
9400;SDS011;4740;49.592;6.140;2024-03-22T08:21:29;0.30;;;0.30;;
9400;SDS011;4740;49.592;6.140;2024-03-22T08:23:54;0.10;;;0.10;;
9400;SDS011;4740;49.592;6.140;2024-03-22T08:26:19;2.53;;;1.60;;
9400;SDS011;4740;49.592;6.140;2024-03-22T08:28:45;0.20;;;0.20;;
9400;SDS011;4740;49.592;6.140;2024-03-22T08:31:11;0.07;;;0.07;;
9400;SDS011;4740;49.592;6.140;2024-03-22T08:33:36;0.10;;;0.10;;
9400;SDS011;4740;49.592;6.140;2024-03-22T08:36:02;0.87;;;0.87;;
9400;SDS011;4740;49.592;6.140;2024-03-22T08:38:29;0.00;;;0.00;;
9400;SDS011;4740;49.592;6.140;2024-03-22T08:40:54;0.30;;;0.30;;
9400;SDS011;4740;49.592;6.140;2024-03-22T08:43:20;0.00;;;0.00;;
9400;SDS011;4740;49.592;6.140;2024-03-22T08:45:47;0.10;;;0.10;;
9400;SDS011;4740;49.592;6.140;2024-03-22T08:48:13;0.87;;;0.87;;
9400;SDS011;4740;49.592;6.140;2024-03-22T08:50:41;0.00;;;0.00;;
9400;SDS011;4740;49.592;6.140;2024-03-22T08:53:07;0.00;;;0.00;;
9400;SDS011;4740;49.592;6.140;2024-03-22T08:55:32;0.43;;;0.43;;
9400;SDS011;4740;49.592;6.140;2024-03-22T08:57:57;1.30;;;0.50;;
9400;SDS011;4740;49.592;6.140;2024-03-22T09:00:22;2.93;;;0.87;;
9400;SDS011;4740;49.592;6.140;2024-03-22T09:02:47;0.60;;;0.60;;
9400;SDS011;4740;49.592;6.140;2024-03-22T09:05:13;3.20;;;2.77;;
9400;SDS011;4740;49.592;6.140;2024-03-22T09:07:38;4.07;;;2.43;;
9400;SDS011;4740;49.592;6.140;2024-03-22T09:10:03;2.83;;;2.20;;
9400;SDS011;4740;49.592;6.140;2024-03-22T09:12:29;0.83;;;0.83;;
9400;SDS011;4740;49.592;6.140;2024-03-22T09:14:54;1.67;;;1.57;;
9400;SDS011;4740;49.592;6.140;2024-03-22T09:17:19;3.20;;;2.37;;
9400;SDS011;4740;49.592;6.140;2024-03-22T09:19:44;10.10;;;4.97;;
9400;SDS011;4740;49.592;6.140;2024-03-22T09:22:09;4.07;;;3.00;;
9400;SDS011;4740;49.592;6.140;2024-03-22T09:24:35;2.73;;;1.33;;
9400;SDS011;4740;49.592;6.140;2024-03-22T09:27:01;1.43;;;1.37;;
9400;SDS011;4740;49.592;6.140;2024-03-22T09:29:29;0.30;;;0.20;;
9400;SDS011;4740;49.592;6.140;2024-03-22T09:31:55;1.80;;;1.40;;
9400;SDS011;4740;49.592;6.140;2024-03-22T09:34:21;12.20;;;4.50;;
9400;SDS011;4740;49.592;6.140;2024-03-22T09:36:46;6.70;;;5.47;;
9400;SDS011;4740;49.592;6.140;2024-03-22T09:39:11;11.07;;;6.33;;
9400;SDS011;4740;49.592;6.140;2024-03-22T09:41:39;8.57;;;2.20;;
9400;SDS011;4740;49.592;6.140;2024-03-22T09:44:05;2.33;;;1.60;;
9400;SDS011;4740;49.592;6.140;2024-03-22T09:46:31;5.93;;;3.87;;
9400;SDS011;4740;49.592;6.140;2024-03-22T09:48:57;4.07;;;3.27;;
9400;SDS011;4740;49.592;6.140;2024-03-22T09:51:23;1.57;;;1.03;;
9400;SDS011;4740;49.592;6.140;2024-03-22T09:53:49;2.13;;;1.70;;
9400;SDS011;4740;49.592;6.140;2024-03-22T09:56:15;9.43;;;1.67;;
9400;SDS011;4740;49.592;6.140;2024-03-22T09:58:41;6.33;;;4.03;;
9400;SDS011;4740;49.592;6.140;2024-03-22T10:01:06;0.97;;;0.97;;
9400;SDS011;4740;49.592;6.140;2024-03-22T10:03:32;12.13;;;3.77;;
9400;SDS011;4740;49.592;6.140;2024-03-22T10:05:57;7.17;;;4.00;;
9400;SDS011;4740;49.592;6.140;2024-03-22T10:08:23;1.33;;;1.33;;
9400;SDS011;4740;49.592;6.140;2024-03-22T10:10:48;0.57;;;0.50;;
9400;SDS011;4740;49.592;6.140;2024-03-22T10:13:13;33.30;;;3.73;;
9400;SDS011;4740;49.592;6.140;2024-03-22T10:15:38;3.67;;;2.77;;
9400;SDS011;4740;49.592;6.140;2024-03-22T10:18:04;7.63;;;4.10;;
9400;SDS011;4740;49.592;6.140;2024-03-22T10:20:29;5.47;;;3.00;;
9400;SDS011;4740;49.592;6.140;2024-03-22T10:22:55;0.10;;;0.10;;
9400;SDS011;4740;49.592;6.140;2024-03-22T10:25:21;1.00;;;1.00;;
9400;SDS011;4740;49.592;6.140;2024-03-22T10:27:47;1.53;;;1.50;;
9400;SDS011;4740;49.592;6.140;2024-03-22T10:30:12;4.80;;;3.50;;
9400;SDS011;4740;49.592;6.140;2024-03-22T10:32:41;12.50;;;8.70;;
9400;SDS011;4740;49.592;6.140;2024-03-22T10:35:06;0.33;;;0.33;;
9400;SDS011;4740;49.592;6.140;2024-03-22T10:37:32;3.30;;;0.67;;
9400;SDS011;4740;49.592;6.140;2024-03-22T10:39:58;0.00;;;0.00;;
9400;SDS011;4740;49.592;6.140;2024-03-22T10:42:23;1.23;;;0.90;;
9400;SDS011;4740;49.592;6.140;2024-03-22T10:44:48;14.87;;;3.53;;
9400;SDS011;4740;49.592;6.140;2024-03-22T10:47:14;5.87;;;4.60;;
9400;SDS011;4740;49.592;6.140;2024-03-22T10:49:41;2.37;;;2.10;;
9400;SDS011;4740;49.592;6.140;2024-03-22T10:52:07;0.27;;;0.27;;
9400;SDS011;4740;49.592;6.140;2024-03-22T10:54:37;7.33;;;4.90;;
9400;SDS011;4740;49.592;6.140;2024-03-22T10:57:05;2.10;;;1.97;;
9400;SDS011;4740;49.592;6.140;2024-03-22T10:59:33;1.20;;;1.10;;
9400;SDS011;4740;49.592;6.140;2024-03-22T11:02:02;1.90;;;0.97;;
9400;SDS011;4740;49.592;6.140;2024-03-22T11:04:29;1.40;;;0.73;;
9400;SDS011;4740;49.592;6.140;2024-03-22T11:06:56;7.63;;;4.33;;
9400;SDS011;4740;49.592;6.140;2024-03-22T11:09:23;1.83;;;1.73;;
9400;SDS011;4740;49.592;6.140;2024-03-22T11:11:49;10.07;;;4.33;;
9400;SDS011;4740;49.592;6.140;2024-03-22T11:14:16;8.00;;;6.03;;
9400;SDS011;4740;49.592;6.140;2024-03-22T11:16:44;6.23;;;4.77;;
9400;SDS011;4740;49.592;6.140;2024-03-22T11:19:10;7.37;;;4.90;;
9400;SDS011;4740;49.592;6.140;2024-03-22T11:21:35;6.00;;;3.47;;
9400;SDS011;4740;49.592;6.140;2024-03-22T11:24:00;8.43;;;5.57;;
9400;SDS011;4740;49.592;6.140;2024-03-22T11:26:26;3.63;;;2.50;;
9400;SDS011;4740;49.592;6.140;2024-03-22T11:28:51;6.27;;;5.23;;
9400;SDS011;4740;49.592;6.140;2024-03-22T11:31:16;14.73;;;5.00;;
9400;SDS011;4740;49.592;6.140;2024-03-22T11:33:41;3.73;;;2.70;;
9400;SDS011;4740;49.592;6.140;2024-03-22T11:36:07;6.67;;;4.70;;
9400;SDS011;4740;49.592;6.140;2024-03-22T11:38:33;7.83;;;4.77;;
9400;SDS011;4740;49.592;6.140;2024-03-22T11:40:59;2.47;;;2.30;;
9400;SDS011;4740;49.592;6.140;2024-03-22T11:43:26;2.80;;;1.73;;
9400;SDS011;4740;49.592;6.140;2024-03-22T11:45:52;6.57;;;5.03;;
9400;SDS011;4740;49.592;6.140;2024-03-22T11:48:17;6.83;;;5.17;;
9400;SDS011;4740;49.592;6.140;2024-03-22T11:50:43;6.07;;;4.17;;
9400;SDS011;4740;49.592;6.140;2024-03-22T11:53:09;2.00;;;1.87;;
9400;SDS011;4740;49.592;6.140;2024-03-22T11:55:35;8.23;;;7.43;;
9400;SDS011;4740;49.592;6.140;2024-03-22T11:58:01;2.93;;;1.50;;
9400;SDS011;4740;49.592;6.140;2024-03-22T12:00:26;1.97;;;1.83;;
9400;SDS011;4740;49.592;6.140;2024-03-22T12:02:52;2.10;;;1.90;;
9400;SDS011;4740;49.592;6.140;2024-03-22T12:05:18;9.93;;;5.57;;
9400;SDS011;4740;49.592;6.140;2024-03-22T12:07:44;4.50;;;4.07;;
9400;SDS011;4740;49.592;6.140;2024-03-22T12:10:09;4.90;;;3.87;;
9400;SDS011;4740;49.592;6.140;2024-03-22T12:12:34;2.87;;;2.53;;
9400;SDS011;4740;49.592;6.140;2024-03-22T12:15:00;3.53;;;2.60;;
9400;SDS011;4740;49.592;6.140;2024-03-22T12:17:25;0.13;;;0.13;;
9400;SDS011;4740;49.592;6.140;2024-03-22T12:19:50;1.23;;;1.23;;
9400;SDS011;4740;49.592;6.140;2024-03-22T12:22:15;4.33;;;2.67;;
9400;SDS011;4740;49.592;6.140;2024-03-22T12:24:40;2.10;;;1.83;;
9400;SDS011;4740;49.592;6.140;2024-03-22T12:27:07;1.70;;;1.60;;
9400;SDS011;4740;49.592;6.140;2024-03-22T12:29:32;2.53;;;2.43;;
9400;SDS011;4740;49.592;6.140;2024-03-22T12:31:57;3.03;;;1.23;;
9400;SDS011;4740;49.592;6.140;2024-03-22T12:34:25;0.73;;;0.73;;
9400;SDS011;4740;49.592;6.140;2024-03-22T12:36:51;3.37;;;3.13;;
9400;SDS011;4740;49.592;6.140;2024-03-22T12:39:16;4.90;;;3.80;;
9400;SDS011;4740;49.592;6.140;2024-03-22T12:41:41;2.17;;;1.83;;
9400;SDS011;4740;49.592;6.140;2024-03-22T12:44:07;1.90;;;1.80;;
9400;SDS011;4740;49.592;6.140;2024-03-22T12:46:32;2.07;;;1.87;;
9400;SDS011;4740;49.592;6.140;2024-03-22T12:48:57;3.10;;;2.43;;
9400;SDS011;4740;49.592;6.140;2024-03-22T12:51:23;0.63;;;0.63;;
9400;SDS011;4740;49.592;6.140;2024-03-22T12:53:49;3.67;;;1.73;;
9400;SDS011;4740;49.592;6.140;2024-03-22T12:56:14;5.83;;;3.77;;
9400;SDS011;4740;49.592;6.140;2024-03-22T12:58:39;0.87;;;0.80;;
9400;SDS011;4740;49.592;6.140;2024-03-22T13:01:05;1.50;;;1.33;;
9400;SDS011;4740;49.592;6.140;2024-03-22T13:03:34;7.77;;;5.30;;
9400;SDS011;4740;49.592;6.140;2024-03-22T13:06:00;5.47;;;3.40;;
9400;SDS011;4740;49.592;6.140;2024-03-22T13:08:26;9.50;;;6.13;;
9400;SDS011;4740;49.592;6.140;2024-03-22T13:10:51;1.23;;;1.13;;
9400;SDS011;4740;49.592;6.140;2024-03-22T13:13:17;3.73;;;3.27;;
9400;SDS011;4740;49.592;6.140;2024-03-22T13:15:42;1.17;;;1.03;;
9400;SDS011;4740;49.592;6.140;2024-03-22T13:18:08;3.50;;;1.30;;
9400;SDS011;4740;49.592;6.140;2024-03-22T13:20:34;4.03;;;2.83;;
9400;SDS011;4740;49.592;6.140;2024-03-22T13:23:00;4.50;;;3.17;;
9400;SDS011;4740;49.592;6.140;2024-03-22T13:25:26;4.33;;;3.93;;
9400;SDS011;4740;49.592;6.140;2024-03-22T13:27:51;3.73;;;2.53;;
9400;SDS011;4740;49.592;6.140;2024-03-22T13:30:16;0.93;;;0.93;;
9400;SDS011;4740;49.592;6.140;2024-03-22T13:32:42;1.03;;;1.03;;
9400;SDS011;4740;49.592;6.140;2024-03-22T13:35:07;0.57;;;0.57;;
9400;SDS011;4740;49.592;6.140;2024-03-22T13:37:32;0.63;;;0.50;;
9400;SDS011;4740;49.592;6.140;2024-03-22T13:39:58;2.80;;;2.43;;
9400;SDS011;4740;49.592;6.140;2024-03-22T13:42:23;2.83;;;2.00;;
9400;SDS011;4740;49.592;6.140;2024-03-22T13:44:48;0.93;;;0.93;;
9400;SDS011;4740;49.592;6.140;2024-03-22T13:47:14;0.47;;;0.47;;
9400;SDS011;4740;49.592;6.140;2024-03-22T13:49:39;0.70;;;0.70;;
9400;SDS011;4740;49.592;6.140;2024-03-22T13:52:08;5.37;;;2.97;;
9400;SDS011;4740;49.592;6.140;2024-03-22T13:54:34;10.67;;;4.13;;
9400;SDS011;4740;49.592;6.140;2024-03-22T13:56:59;4.33;;;2.90;;
9400;SDS011;4740;49.592;6.140;2024-03-22T13:59:25;2.73;;;2.47;;
9400;SDS011;4740;49.592;6.140;2024-03-22T14:01:51;4.20;;;3.80;;
9400;SDS011;4740;49.592;6.140;2024-03-22T14:04:16;3.33;;;2.77;;
9400;SDS011;4740;49.592;6.140;2024-03-22T14:06:41;2.77;;;1.57;;
9400;SDS011;4740;49.592;6.140;2024-03-22T14:09:09;3.97;;;2.80;;
9400;SDS011;4740;49.592;6.140;2024-03-22T14:11:35;0.93;;;0.93;;
9400;SDS011;4740;49.592;6.140;2024-03-22T14:14:00;3.10;;;2.00;;
9400;SDS011;4740;49.592;6.140;2024-03-22T14:16:25;2.37;;;2.00;;
9400;SDS011;4740;49.592;6.140;2024-03-22T14:18:51;1.27;;;1.27;;
9400;SDS011;4740;49.592;6.140;2024-03-22T14:21:17;3.60;;;1.83;;
9400;SDS011;4740;49.592;6.140;2024-03-22T14:23:47;1.70;;;1.63;;
9400;SDS011;4740;49.592;6.140;2024-03-22T14:26:13;1.37;;;1.37;;
9400;SDS011;4740;49.592;6.140;2024-03-22T14:28:38;0.90;;;0.90;;
9400;SDS011;4740;49.592;6.140;2024-03-22T14:31:05;3.23;;;3.03;;
9400;SDS011;4740;49.592;6.140;2024-03-22T14:33:33;2.10;;;2.00;;
9400;SDS011;4740;49.592;6.140;2024-03-22T14:35:58;0.30;;;0.30;;
9400;SDS011;4740;49.592;6.140;2024-03-22T14:38:23;2.27;;;2.07;;
9400;SDS011;4740;49.592;6.140;2024-03-22T14:40:48;3.17;;;2.87;;
9400;SDS011;4740;49.592;6.140;2024-03-22T14:43:13;2.13;;;1.93;;
9400;SDS011;4740;49.592;6.140;2024-03-22T14:45:39;1.60;;;1.50;;
9400;SDS011;4740;49.592;6.140;2024-03-22T14:48:04;2.33;;;2.23;;
9400;SDS011;4740;49.592;6.140;2024-03-22T14:50:34;2.20;;;2.10;;
9400;SDS011;4740;49.592;6.140;2024-03-22T14:53:00;2.60;;;1.57;;
9400;SDS011;4740;49.592;6.140;2024-03-22T14:55:25;1.93;;;1.80;;
9400;SDS011;4740;49.592;6.140;2024-03-22T14:57:50;1.13;;;1.13;;
9400;SDS011;4740;49.592;6.140;2024-03-22T15:00:16;2.17;;;1.97;;
9400;SDS011;4740;49.592;6.140;2024-03-22T15:02:41;3.07;;;2.10;;
9400;SDS011;4740;49.592;6.140;2024-03-22T15:05:07;4.27;;;3.73;;